TimeEDT,TemperatureF,Dew PointF,Humidity,Sea Level PressureIn,VisibilityMPH,Wind Direction,Wind SpeedMPH,Gust SpeedMPH,PrecipitationIn,Events,Conditions,WindDirDegrees,DateUTC
12:53 AM,70.0,66.0,87,29.83,10.0,South,4.6,-,N/A,,Clear,180,2012-06-12 04:53:00
1:53 AM,71.1,66.9,87,29.82,10.0,SSW,6.9,-,N/A,,Clear,210,2012-06-12 05:53:00
2:53 AM,69.1,66.0,90,29.82,10.0,SW,4.6,-,N/A,,Clear,220,2012-06-12 06:53:00
3:53 AM,70.0,62.1,76,29.83,10.0,NW,15.0,-,N/A,,Clear,310,2012-06-12 07:53:00
4:53 AM,68.0,57.0,68,29.86,10.0,NW,12.7,-,N/A,,Clear,320,2012-06-12 08:53:00
5:53 AM,66.2,53.6,64,29.90,10.0,NW,9.2,-,N/A,,Clear,310,2012-06-12 09:53:00
6:53 AM,64.9,53.1,65,29.92,10.0,NW,12.7,-,N/A,,Clear,310,2012-06-12 10:53:00
7:53 AM,66.0,53.1,63,29.94,10.0,WNW,11.5,19.6,N/A,,Clear,300,2012-06-12 11:53:00
8:53 AM,66.0,50.0,56,29.94,10.0,NW,12.7,-,N/A,,Clear,310,2012-06-12 12:53:00
9:53 AM,68.0,46.0,45,29.94,10.0,NW,16.1,20.7,N/A,,Clear,310,2012-06-12 13:53:00
10:53 AM,69.1,46.9,45,29.96,10.0,WNW,12.7,-,N/A,,Clear,300,2012-06-12 14:53:00
11:53 AM,70.0,46.9,44,29.97,10.0,NW,17.3,25.3,N/A,,Clear,310,2012-06-12 15:53:00
12:53 PM,71.1,48.0,44,29.99,10.0,WNW,17.3,24.2,N/A,,Clear,300,2012-06-12 16:53:00
1:53 PM,70.0,46.0,42,30.00,10.0,WNW,15.0,25.3,N/A,,Clear,300,2012-06-12 17:53:00
2:53 PM,71.1,45.0,39,30.01,10.0,NW,16.1,26.5,N/A,,Clear,310,2012-06-12 18:53:00
3:53 PM,70.0,46.0,42,30.02,10.0,WNW,16.1,21.9,N/A,,Clear,290,2012-06-12 19:53:00
4:53 PM,70.0,46.9,44,30.03,10.0,NNW,15.0,26.5,N/A,,Clear,340,2012-06-12 20:53:00
5:53 PM,70.0,45.0,41,30.04,10.0,NW,17.3,24.2,N/A,,Clear,320,2012-06-12 21:53:00
6:53 PM,69.1,45.0,42,30.05,10.0,NW,17.3,24.2,N/A,,Clear,310,2012-06-12 22:53:00
7:53 PM,66.9,46.0,47,30.06,10.0,NNW,10.4,-,N/A,,Clear,330,2012-06-12 23:53:00
8:53 PM,64.9,46.0,50,30.08,10.0,NW,12.7,-,N/A,,Clear,320,2012-06-13 00:53:00
9:53 PM,61.0,46.9,60,30.09,10.0,NW,9.2,-,N/A,,Clear,320,2012-06-13 01:53:00
10:53 PM,59.0,46.9,64,30.12,10.0,NNW,9.2,-,N/A,,Clear,330,2012-06-13 02:53:00
11:53 PM,57.0,46.9,69,30.14,10.0,North,4.6,-,N/A,,Clear,10,2012-06-13 03:53:00